Terminal Aerodrome Forecast
Issued by NWS

Home | Current Version | Previous Version | Graphics & Text | Print | Product List | Glossary On
Versions: 1 2 3 4 5 6 7 8 9 10 11 12 13 14 15 16 17 18 19
750
FTUS43 KBIS 242325
TAFMOT
TAF
KMOT 242325Z 2500/2524 25016G22KT P6SM VCTS SCT050CB BKN120
     FM250200 26012KT P6SM FEW060 SCT250
     FM250400 24007KT P6SM FEW250
     FM251400 26009KT P6SM SKC
     FM251900 28015KT P6SM FEW250=

USA.gov is the U.S. government's official web portal to all federal, state and local government web resources and services.